Terminal Aerodrome Forecast
Issued by NWS Wakefield, VA

Home | Current Version | Previous Version | Text Only | Print | Product List | Glossary On
Versions: 1 2 3 4 5 6 7 8 9 10 11 12 13 14 15
000
FTUS41 KAKQ 272300
TAFORF
TAF
KORF 272320Z 2800/2824 18006KT P6SM SCT250
     FM280400 21006KT P6SM SCT120 OVC250
     FM281400 23009KT P6SM BKN070 OVC120
     FM281700 24010KT P6SM -RA OVC060
     FM282000 25010KT 4SM -RA BR OVC035=

USA.gov is the U.S. government's official web portal to all federal, state and local government web resources and services.